.
WxDataArchive / Data Records for 2015-03-01
2015-02-28 March 2015 2015-03-02

Data Records for Sunday, 01 March 2015

Time	Temp	Chill	HIndex	Humid	Dewpt	 Wind 	HiWind	WindDir	Rain 	Barom
-----	----	-----	------	-----	-----	------	------	-------	-----	-----
00:00	15.4	15.4	15.4	84	11.4	1	3	90	0.00	30.541 
00:05	15.6	15.6	15.6	84	11.6	1	2	90	0.00	30.541 
00:10	15.6	15.6	15.6	85	11.9	1	2	90	0.00	30.541 
00:15	15.6	15.6	15.6	85	11.9	1	3	90	0.00	30.525 
00:20	15.6	15.6	15.6	85	11.9	1	3	90	0.00	30.525 
00:25	15.6	15.6	15.6	85	11.9	1	3	90	0.00	30.525 
00:30	15.7	15.7	15.7	85	12.0	1	3	90	0.00	30.509 
00:35	15.7	15.7	15.7	85	12.0	1	4	90	0.00	30.509 
00:40	15.7	15.7	15.7	85	12.0	1	3	90	0.00	30.509 
00:45	15.7	15.7	15.7	85	12.0	1	4	90	0.00	30.501 
00:50	15.7	15.7	15.7	85	12.0	1	4	90	0.00	30.501 
00:55	15.9	15.9	15.9	85	12.2	1	4	90	0.00	30.501 
01:00	15.9	15.9	15.9	85	12.2	1	2	90	0.00	30.498 
01:05	15.9	15.9	15.9	85	12.2	0	2	90	0.00	30.498 
01:10	15.9	15.9	15.9	86	12.5	0	2	90	0.00	30.498 
01:15	16.1	16.1	16.1	85	12.4	1	4	90	0.00	30.491 
01:20	16.1	16.1	16.1	86	12.7	0	3	90	0.00	30.491 
01:25	16.1	16.1	16.1	86	12.7	1	2	90	0.00	30.491 
01:30	16.1	16.1	16.1	86	12.7	1	3	90	0.00	30.491 
01:35	16.1	16.1	16.1	86	12.7	1	3	90	0.00	30.491 
01:40	16.1	16.1	16.1	86	12.7	1	3	90	0.00	30.491 
01:45	16.1	16.1	16.1	86	12.7	0	1	90	0.00	30.478 
01:50	16.1	16.1	16.1	86	12.7	0	2	90	0.00	30.478 
01:55	16.1	16.1	16.1	86	12.7	1	2	90	0.00	30.478 
02:00	16.1	16.1	16.1	86	12.7	0	2	90	0.00	30.478 
02:05	16.1	16.1	16.1	86	12.7	0	2	90	0.00	30.478 
02:10	16.1	16.1	16.1	86	12.7	1	2	90	0.00	30.478 
02:15	16.1	16.1	16.1	86	12.7	0	2	90	0.00	30.478 
02:20	16.1	16.1	16.1	86	12.7	0	1	90	0.00	30.478 
02:25	16.1	16.1	16.1	86	12.7	0	1	90	0.00	30.478 
02:30	16.1	16.1	16.1	86	12.7	0	3	90	0.00	30.476 
02:35	15.9	15.9	15.9	86	12.5	0	1	90	0.00	30.476 
02:40	15.9	15.9	15.9	86	12.5	1	2	90	0.00	30.476 
02:45	15.9	15.9	15.9	86	12.5	0	2	90	0.00	30.463 
02:50	15.9	15.9	15.9	86	12.5	1	3	90	0.00	30.463 
02:55	15.9	15.9	15.9	86	12.5	1	3	90	0.00	30.463 
03:00	15.9	15.9	15.9	86	12.5	0	2	90	0.00	30.453 
03:05	15.9	15.9	15.9	86	12.5	1	2	90	0.00	30.453 
03:10	15.9	15.9	15.9	86	12.5	1	2	90	0.00	30.453 
03:15	15.9	15.9	15.9	86	12.5	0	2	90	0.00	30.445 
03:20	15.9	15.9	15.9	86	12.5	0	2	90	0.00	30.445 
03:25	15.9	15.9	15.9	86	12.5	0	2	90	0.00	30.445 
03:30	15.9	15.9	15.9	86	12.5	0	2	90	0.00	30.434 
03:35	15.9	15.9	15.9	86	12.5	0	1	90	0.00	30.434 
03:40	15.9	15.9	15.9	86	12.5	0	2	90	0.00	30.434 
03:45	15.9	15.9	15.9	86	12.5	0	2	90	0.00	30.428 
03:50	15.9	15.9	15.9	86	12.5	0	1	90	0.00	30.428 
03:55	15.9	15.9	15.9	86	12.5	0	2	90	0.00	30.428 
04:00	15.9	15.9	15.9	86	12.5	0	1	90	0.00	30.427 
04:05	15.9	15.9	15.9	86	12.5	0	1	90	0.00	30.427 
04:10	15.9	15.9	15.9	86	12.5	0	1	90	0.00	30.427 
04:15	15.9	15.9	15.9	86	12.5	0	1	90	0.00	30.427 
04:20	15.9	15.9	15.9	86	12.5	0	2	90	0.00	30.427 
04:25	15.9	15.9	15.9	86	12.5	0	2	90	0.00	30.427 
04:30	15.9	15.9	15.9	86	12.5	0	0	---	0.00	30.427 
04:35	15.9	15.9	15.9	86	12.5	0	0	---	0.00	30.427 
04:40	15.9	15.9	15.9	86	12.5	0	0	---	0.00	30.427 
04:45	15.9	15.9	15.9	86	12.5	0	1	90	0.00	30.428 
04:50	15.9	15.9	15.9	86	12.5	0	1	90	0.00	30.428 
04:55	15.9	15.9	15.9	86	12.5	0	1	90	0.00	30.428 
05:00	16.1	16.1	16.1	86	12.7	0	1	90	0.00	30.428 
05:05	16.1	16.1	16.1	86	12.7	0	1	90	0.00	30.428 
05:10	16.1	16.1	16.1	86	12.7	0	0	---	0.00	30.428 
05:15	16.1	16.1	16.1	86	12.7	0	2	90	0.00	30.430 
05:20	16.1	16.1	16.1	86	12.7	0	1	90	0.00	30.430 
05:25	16.1	16.1	16.1	86	12.7	0	1	90	0.00	30.430 
05:30	16.1	16.1	16.1	86	12.7	0	2	90	0.00	30.427 
05:35	16.1	16.1	16.1	86	12.7	1	2	90	0.00	30.427 
05:40	16.1	16.1	16.1	86	12.7	0	2	90	0.00	30.427 
05:45	16.1	16.1	16.1	86	12.7	0	2	90	0.00	30.430 
05:50	16.1	16.1	16.1	86	12.7	0	2	90	0.00	30.430 
05:55	16.1	16.1	16.1	86	12.7	0	1	90	0.00	30.430 
06:00	16.1	16.1	16.1	86	12.7	0	2	90	0.00	30.432 
06:05	16.1	16.1	16.1	86	12.7	0	2	90	0.00	30.432 
06:10	16.2	16.2	16.2	86	12.8	0	1	90	0.00	30.432 
06:15	16.2	16.2	16.2	86	12.8	0	3	90	0.00	30.430 
06:20	16.2	16.2	16.2	86	12.8	1	2	90	0.00	30.430 
06:25	16.2	16.2	16.2	86	12.8	1	2	90	0.00	30.430 
06:30	16.2	16.2	16.2	86	12.8	0	2	90	0.00	30.426 
06:35	16.2	16.2	16.2	86	12.8	1	2	90	0.00	30.426 
06:40	16.2	16.2	16.2	86	12.8	0	1	90	0.00	30.426 
06:45	16.2	16.2	16.2	86	12.8	0	1	90	0.00	30.422 
06:50	16.4	16.4	16.4	86	13.0	0	1	90	0.00	30.422 
06:55	16.4	16.4	16.4	86	13.0	0	1	90	0.00	30.422 
07:00	16.4	16.4	16.4	86	13.0	0	1	90	0.00	30.425 
07:05	16.4	16.4	16.4	86	13.0	0	0	---	0.00	30.425 
07:10	16.4	16.4	16.4	86	13.0	0	1	90	0.00	30.425 
07:15	16.4	16.4	16.4	86	13.0	0	1	90	0.00	30.430 
07:20	16.5	16.5	16.5	86	13.1	0	1	90	0.00	30.430 
07:25	16.5	16.5	16.5	86	13.1	0	1	90	0.00	30.430 
07:30	16.5	16.5	16.5	86	13.1	0	1	90	0.00	30.423 
07:35	16.5	16.5	16.5	86	13.1	0	1	90	0.00	30.423 
07:40	16.5	16.5	16.5	86	13.1	0	1	90	0.00	30.423 
07:45	16.5	16.5	16.5	86	13.1	0	0	---	0.00	30.416 
07:50	16.7	16.7	16.7	86	13.3	0	1	90	0.00	30.416 
07:55	16.7	16.7	16.7	86	13.3	0	0	---	0.00	30.416 
08:00	16.9	16.9	16.9	86	13.5	0	0	---	0.00	30.417 
08:05	16.9	16.9	16.9	86	13.5	0	0	---	0.00	30.417 
08:10	17.0	17.0	17.0	86	13.6	0	1	90	0.00	30.417 
08:15	17.0	17.0	17.0	86	13.6	0	1	90	0.00	30.415 
08:20	17.2	17.2	17.2	86	13.7	0	1	90	0.00	30.415 
08:25	17.2	17.2	17.2	86	13.7	0	1	90	0.00	30.415 
08:30	17.2	17.2	17.2	86	13.7	0	1	90	0.00	30.413 
08:35	17.3	17.3	17.3	86	13.8	0	1	90	0.00	30.413 
08:40	17.3	17.3	17.3	86	13.8	0	1	90	0.00	30.413 
08:45	17.7	17.7	17.7	86	14.2	0	0	---	0.00	30.416 
08:50	17.7	17.7	17.7	86	14.2	0	1	90	0.00	30.416 
08:55	17.8	17.8	17.8	86	14.3	0	1	90	0.00	30.416 
09:00	18.0	18.0	18.0	85	14.3	0	1	90	0.00	30.414 
09:05	18.1	18.1	18.1	85	14.4	0	0	---	0.00	30.414 
09:10	18.1	18.1	18.1	85	14.4	0	1	225	0.00	30.414 
09:15	18.3	18.3	18.3	85	14.6	0	0	---	0.00	30.415 
09:20	18.4	18.4	18.4	85	14.7	0	0	---	0.00	30.415 
09:25	18.4	18.4	18.4	85	14.7	0	0	---	0.00	30.415 
09:30	18.6	18.6	18.6	85	14.9	0	0	---	0.00	30.410 
09:35	18.8	18.8	18.8	85	15.1	0	2	270	0.00	30.410 
09:40	18.9	18.9	18.9	84	14.9	0	1	270	0.00	30.410 
09:45	19.2	19.2	19.2	84	15.2	0	1	270	0.00	30.412 
09:50	19.4	19.4	19.4	84	15.4	0	1	270	0.00	30.412 
09:55	19.5	19.5	19.5	84	15.5	0	1	270	0.00	30.412 
10:00	19.7	19.7	19.7	84	15.7	0	2	270	0.00	30.399 
10:05	20.2	20.2	20.2	84	16.2	0	3	270	0.00	30.399 
10:10	20.6	20.6	20.6	84	16.5	0	1	270	0.00	30.399 
10:15	21.1	21.1	21.1	83	16.8	0	2	270	0.00	30.398 
10:20	21.1	21.1	21.1	81	16.2	0	2	270	0.00	30.398 
10:25	20.6	20.6	20.6	81	15.7	1	2	270	0.00	30.398 
10:30	20.3	20.3	20.3	82	15.7	0	2	270	0.00	30.400 
10:35	20.3	20.3	20.3	82	15.7	0	1	270	0.00	30.400 
10:40	20.5	20.5	20.5	83	16.2	0	1	270	0.00	30.400 
10:45	20.8	20.8	20.8	83	16.5	0	1	270	0.00	30.397 
10:50	21.1	21.1	21.1	83	16.8	0	0	---	0.00	30.397 
10:55	21.4	21.4	21.4	82	16.8	0	1	270	0.00	30.397 
11:00	21.4	21.4	21.4	82	16.8	0	2	270	0.00	30.390 
11:05	21.8	21.8	21.8	82	17.2	0	1	270	0.00	30.390 
11:10	21.8	21.8	21.8	81	16.9	0	2	270	0.00	30.390 
11:15	21.6	21.6	21.6	81	16.7	0	2	270	0.00	30.390 
11:20	21.8	21.8	21.8	82	17.2	0	1	270	0.00	30.390 
11:25	22.2	22.2	22.2	82	17.6	0	0	---	0.00	30.390 
11:30	22.4	22.4	22.4	81	17.5	0	1	270	0.00	30.394 
11:35	22.5	22.5	22.5	81	17.6	0	1	270	0.00	30.394 
11:40	22.5	22.5	22.5	80	17.3	0	0	---	0.00	30.394 
11:45	22.7	22.7	22.7	80	17.5	0	0	---	0.00	30.393 
11:50	23.0	23.0	23.0	81	18.1	0	0	---	0.00	30.393 
11:55	23.6	23.6	23.6	81	18.6	0	0	---	0.00	30.393 
12:00	24.1	24.1	24.1	80	18.8	0	1	270	0.00	30.374 
12:05	24.1	24.1	24.1	79	18.5	0	1	270	0.00	30.374 
12:10	24.4	24.4	24.4	79	18.8	0	1	270	0.00	30.374 
12:15	24.7	24.7	24.7	78	18.8	0	0	---	0.00	30.372 
12:20	24.5	24.5	24.5	77	18.3	0	1	270	0.00	30.372 
12:25	24.2	24.2	24.2	77	18.1	0	1	270	0.00	30.372 
12:30	24.1	24.1	24.1	78	18.3	0	1	270	0.00	30.366 
12:35	24.1	24.1	24.1	79	18.5	0	1	270	0.00	30.366 
12:40	24.4	24.4	24.4	80	19.1	0	1	270	0.00	30.366 
12:45	24.8	24.8	24.8	79	19.2	0	0	---	0.00	30.361 
12:50	25.4	25.4	25.4	78	19.5	0	2	270	0.00	30.361 
12:55	25.3	25.3	25.3	77	19.1	0	1	270	0.00	30.361 
13:00	25.6	25.6	25.6	77	19.4	0	1	270	0.00	30.351 
13:05	25.7	25.7	25.7	77	19.5	0	2	270	0.00	30.351 
13:10	25.7	25.7	25.7	76	19.2	0	2	270	0.00	30.351 
13:15	25.8	25.8	25.8	76	19.3	0	2	270	0.00	30.346 
13:20	25.8	25.8	25.8	76	19.3	0	1	270	0.00	30.346 
13:25	25.7	25.7	25.7	76	19.2	0	1	270	0.00	30.346 
13:30	25.8	25.8	25.8	76	19.3	0	1	270	0.00	30.330 
13:35	26.1	26.1	26.1	76	19.6	0	0	---	0.00	30.330 
13:40	26.1	26.1	26.1	75	19.3	0	1	270	0.00	30.330 
13:45	26.3	26.3	26.3	76	19.8	0	1	270	0.00	30.321 
13:50	26.0	26.0	26.0	76	19.5	0	1	270	0.00	30.321 
13:55	25.8	25.8	25.8	77	19.6	0	1	270	0.00	30.321 
14:00	26.0	26.0	26.0	78	20.1	0	1	270	0.00	30.314 
14:05	26.3	26.3	26.3	78	20.4	0	1	270	0.00	30.314 
14:10	26.4	26.4	26.4	78	20.5	0	1	270	0.00	30.314 
14:15	26.4	26.4	26.4	78	20.5	0	1	225	0.00	30.313 
14:20	26.3	26.3	26.3	78	20.4	0	1	225	0.00	30.313 
14:25	26.3	26.3	26.3	79	20.7	0	2	225	0.00	30.313 
14:30	26.1	26.1	26.1	79	20.5	0	2	225	0.00	30.311 
14:35	26.3	26.3	26.3	79	20.7	0	3	225	0.01	30.311 
14:40	26.4	26.4	26.4	79	20.8	0	2	225	0.01	30.311 
14:45	26.7	26.7	26.7	79	21.1	0	1	225	0.00	30.304 
14:50	26.9	26.9	26.9	77	20.7	0	2	225	0.00	30.304 
14:55	27.0	27.0	27.0	77	20.8	0	1	225	0.01	30.304 
15:00	26.9	26.9	26.9	76	20.4	0	2	225	0.00	30.296 
15:05	26.9	26.9	26.9	76	20.4	0	1	225	0.01	30.296 
15:10	27.0	27.0	27.0	76	20.5	0	1	225	0.00	30.296 
15:15	27.0	27.0	27.0	76	20.5	0	1	225	0.00	30.296 
15:20	27.0	27.0	27.0	76	20.5	0	1	225	0.01	30.296 
15:25	27.2	27.2	27.2	76	20.7	0	1	225	0.00	30.296 
15:30	27.2	27.2	27.2	76	20.7	0	1	225	0.00	30.296 
15:35	27.2	27.2	27.2	77	21.0	0	1	225	0.00	30.296 
15:40	27.0	27.0	27.0	76	20.5	1	3	225	0.01	30.296 
15:45	26.9	26.9	26.9	76	20.4	0	1	225	0.00	30.302 
15:50	27.0	27.0	27.0	77	20.8	0	2	225	0.00	30.302 
15:55	27.0	27.0	27.0	77	20.8	0	2	225	0.00	30.302 
16:00	27.0	27.0	27.0	77	20.8	0	1	225	0.00	30.298 
16:05	27.0	27.0	27.0	76	20.5	0	2	225	0.00	30.298 
16:10	27.0	27.0	27.0	77	20.8	0	1	225	0.01	30.298 
16:15	27.0	27.0	27.0	76	20.5	0	2	225	0.00	30.295 
16:20	27.2	27.2	27.2	76	20.7	0	2	225	0.00	30.295 
16:25	27.2	27.2	27.2	75	20.3	0	2	225	0.00	30.295 
16:30	27.2	27.2	27.2	75	20.3	0	2	225	0.00	30.289 
16:35	27.5	27.5	27.5	75	20.6	0	1	225	0.00	30.289 
16:40	27.3	27.3	27.3	74	20.1	1	2	225	0.01	30.289 
16:45	27.2	27.2	27.2	74	20.0	0	2	225	0.00	30.290 
16:50	27.2	27.2	27.2	74	20.0	0	2	225	0.00	30.290 
16:55	27.0	27.0	27.0	74	19.8	0	1	225	0.00	30.290 
17:00	26.7	26.7	26.7	74	19.5	0	2	225	0.00	30.289 
17:05	26.6	26.6	26.6	75	19.8	0	1	225	0.00	30.289 
17:10	26.6	26.6	26.6	75	19.8	0	2	225	0.00	30.289 
17:15	26.4	26.4	26.4	75	19.6	0	1	225	0.00	30.281 
17:20	26.3	26.3	26.3	75	19.5	0	1	225	0.00	30.281 
17:25	26.3	26.3	26.3	76	19.8	0	2	225	0.00	30.281 
17:30	26.3	26.3	26.3	76	19.8	0	2	225	0.00	30.293 
17:35	26.1	26.1	26.1	76	19.6	0	1	225	0.00	30.293 
17:40	26.3	26.3	26.3	76	19.8	0	1	225	0.00	30.293 
17:45	26.3	26.3	26.3	76	19.8	0	1	225	0.01	30.285 
17:50	26.1	26.1	26.1	76	19.6	0	1	225	0.00	30.285 
17:55	26.0	26.0	26.0	76	19.5	0	2	225	0.00	30.285 
18:00	25.7	25.7	25.7	76	19.2	0	1	225	0.00	30.284 
18:05	25.6	25.6	25.6	77	19.4	0	1	225	0.00	30.284 
18:10	25.4	25.4	25.4	77	19.2	0	1	225	0.00	30.284 
18:15	25.4	25.4	25.4	77	19.2	0	0	---	0.00	30.285 
18:20	25.3	25.3	25.3	77	19.1	0	1	225	0.00	30.285 
18:25	25.3	25.3	25.3	78	19.4	0	1	225	0.00	30.285 
18:30	25.0	25.0	25.0	78	19.1	0	0	---	0.00	30.283 
18:35	24.8	24.8	24.8	78	18.9	0	0	---	0.00	30.283 
18:40	24.7	24.7	24.7	79	19.1	0	0	---	0.00	30.283 
18:45	24.7	24.7	24.7	79	19.1	0	1	225	0.00	30.286 
18:50	24.5	24.5	24.5	79	18.9	0	0	---	0.00	30.286 
18:55	24.5	24.5	24.5	80	19.2	0	1	225	0.00	30.286 
19:00	24.5	24.5	24.5	80	19.2	0	1	225	0.00	30.282 
19:05	24.5	24.5	24.5	80	19.2	0	1	225	0.00	30.282 
19:10	24.4	24.4	24.4	81	19.4	0	1	225	0.00	30.282 
19:15	24.4	24.4	24.4	81	19.4	0	0	---	0.00	30.273 
19:20	24.2	24.2	24.2	81	19.2	0	1	225	0.00	30.273 
19:25	23.9	23.9	23.9	81	18.9	0	0	---	0.00	30.273 
19:30	23.8	23.8	23.8	81	18.8	0	0	---	0.00	30.279 
19:35	23.6	23.6	23.6	81	18.6	0	0	---	0.00	30.279 
19:40	23.3	23.3	23.3	81	18.3	0	0	---	0.00	30.279 
19:45	23.2	23.2	23.2	81	18.3	0	1	225	0.00	30.284 
19:50	22.9	22.9	22.9	81	18.0	0	0	---	0.00	30.284 
19:55	22.9	22.9	22.9	82	18.2	0	0	---	0.00	30.284 
20:00	22.7	22.7	22.7	82	18.0	0	1	225	0.00	30.291 
20:05	22.5	22.5	22.5	82	17.9	0	0	---	0.00	30.291 
20:10	22.4	22.4	22.4	82	17.8	0	1	225	0.00	30.291 
20:15	22.2	22.2	22.2	83	17.8	0	1	225	0.00	30.294 
20:20	22.4	22.4	22.4	83	18.0	0	1	225	0.00	30.294 
20:25	22.4	22.4	22.4	83	18.0	0	1	225	0.00	30.294 
20:30	22.4	22.4	22.4	83	18.0	0	1	225	0.00	30.297 
20:35	22.5	22.5	22.5	84	18.4	0	1	225	0.00	30.297 
20:40	22.7	22.7	22.7	84	18.6	0	1	225	0.00	30.297 
20:45	22.9	22.9	22.9	84	18.8	0	1	225	0.00	30.298 
20:50	22.9	22.9	22.9	84	18.8	0	1	225	0.00	30.298 
20:55	23.0	23.0	23.0	84	18.9	0	2	225	0.00	30.298 
21:00	23.2	23.2	23.2	84	19.1	0	2	225	0.00	30.293 
21:05	23.2	23.2	23.2	84	19.1	0	2	225	0.00	30.293 
21:10	23.3	23.3	23.3	84	19.2	0	2	225	0.00	30.293 
21:15	23.3	23.3	23.3	84	19.2	1	3	225	0.00	30.294 
21:20	23.3	23.3	23.3	84	19.2	1	2	225	0.00	30.294 
21:25	23.3	23.3	23.3	83	18.9	1	2	225	0.00	30.294 
21:30	23.3	23.3	23.3	83	18.9	1	3	225	0.00	30.295 
21:35	23.2	23.2	23.2	83	18.8	1	3	225	0.00	30.295 
21:40	23.2	23.2	23.2	83	18.8	1	3	225	0.00	30.295 
21:45	23.2	23.2	23.2	83	18.8	1	3	225	0.00	30.296 
21:50	23.2	23.2	23.2	83	18.8	1	2	225	0.00	30.296 
21:55	23.0	23.0	23.0	82	18.3	2	4	225	0.00	30.296 
22:00	23.0	23.0	23.0	82	18.3	2	4	225	0.00	30.308 
22:05	23.0	23.0	23.0	82	18.3	1	3	248	0.00	30.308 
22:10	23.0	23.0	23.0	82	18.3	2	4	248	0.00	30.308 
22:15	23.0	23.0	23.0	82	18.3	1	4	248	0.00	30.312 
22:20	22.9	22.9	22.9	82	18.2	1	3	248	0.00	30.312 
22:25	22.9	22.9	22.9	82	18.2	1	2	248	0.00	30.312 
22:30	22.9	22.9	22.9	82	18.2	1	3	248	0.00	30.313 
22:35	22.7	22.7	22.7	82	18.0	1	3	248	0.00	30.313 
22:40	22.7	22.7	22.7	82	18.0	1	2	248	0.00	30.313 
22:45	22.7	22.7	22.7	82	18.0	1	4	248	0.00	30.320 
22:50	22.7	22.7	22.7	82	18.0	1	4	248	0.00	30.320 
22:55	22.7	22.7	22.7	82	18.0	1	4	248	0.00	30.320 
23:00	22.9	22.9	22.9	82	18.2	2	4	248	0.00	30.326 
23:05	22.9	22.9	22.9	82	18.2	2	5	292	0.00	30.326 
23:10	22.9	22.9	22.9	81	18.0	2	4	270	0.00	30.326 
23:15	22.9	22.9	22.9	81	18.0	2	4	270	0.00	30.326 
23:20	23.0	23.0	23.0	81	18.1	1	4	315	0.00	30.326 
23:25	22.9	22.9	22.9	81	18.0	3	5	248	0.00	30.326 
23:30	22.9	22.9	22.9	81	18.0	2	4	270	0.00	30.329 
23:35	22.9	22.9	22.9	81	18.0	2	4	270	0.00	30.329 
23:40	22.9	22.9	22.9	80	17.7	1	4	270	0.00	30.329 
23:45	22.7	22.7	22.7	80	17.5	3	5	270	0.00	30.325 
23:50	22.5	22.5	22.5	79	17.0	2	4	270	0.00	30.325 
23:55	22.2	22.2	22.2	79	16.7	2	5	270	0.00	30.325 

CoCoRaHS
IN-AL-39
A2 Web Hosting
Creative Commons License
GoDaddy
search engine by freefind advanced

loaded 2018-11-17 11:52:58 • last modified 2010-11-18 10:43:29
Privacy PolicyDisclaimer
• wx.awcolley.com is powered by PmWiki v.2002016 •
• all content (unless otherwise noted) © 2018 A W Colley